Time;durP1;ratioP1;P1;durP2;ratioP2;P2;SDS_P1;SDS_P2;PMS_P1;PMS_P2;Temp;Humidity;BMP_temperature;BMP_pressure;BME280_temperature;BME280_humidity;BME280_pressure;Samples;Min_cycle;Max_cycle;Signal;HPM_P1;HPM_P2
2023/08/11 00:00:27;;;;;;;3.90;3.35;;;14.80;99.90;;;;;;2041513;28;20240;-83
2023/08/11 00:01:29;;;;;;;3.97;3.63;;;14.80;99.90;;;;;;2049554;28;20255;-83
2023/08/11 00:02:30;;;;;;;4.35;3.58;;;14.80;99.90;;;;;;2053361;28;20238;-82
2023/08/11 00:03:30;;;;;;;5.00;3.37;;;14.90;99.90;;;;;;2049236;28;20314;-83
2023/08/11 00:04:31;;;;;;;5.13;4.47;;;14.90;99.90;;;;;;2052594;28;20238;-82
2023/08/11 00:05:39;;;;;;;4.37;3.27;;;14.90;99.90;;;;;;2053299;28;20242;-83
2023/08/11 00:06:40;;;;;;;5.57;4.00;;;14.90;99.90;;;;;;2043506;28;21021;-82
2023/08/11 00:07:41;;;;;;;6.73;4.13;;;14.90;99.90;;;;;;2041448;29;20232;-83
2023/08/11 00:08:42;;;;;;;4.30;3.70;;;14.90;99.90;;;;;;2049914;28;20318;-83
2023/08/11 00:09:44;;;;;;;3.67;3.33;;;14.80;99.90;;;;;;2053292;28;20239;-83
2023/08/11 00:10:45;;;;;;;4.32;3.53;;;14.90;99.90;;;;;;2059713;28;20261;-83
2023/08/11 00:11:46;;;;;;;5.88;3.80;;;15.00;99.90;;;;;;2064852;28;20229;-83
2023/08/11 00:12:47;;;;;;;5.07;3.90;;;14.90;99.90;;;;;;2053239;28;20223;-83
2023/08/11 00:13:49;;;;;;;4.75;4.28;;;15.00;99.90;;;;;;2053331;28;20756;-83
2023/08/11 00:14:49;;;;;;;6.22;3.83;;;15.00;99.90;;;;;;2048825;28;20239;-83
2023/08/11 00:15:50;;;;;;;5.77;3.70;;;14.80;99.90;;;;;;2049501;28;20226;-83
2023/08/11 00:16:51;;;;;;;3.87;3.47;;;14.80;99.90;;;;;;2048885;28;20225;-83
2023/08/11 00:17:53;;;;;;;6.03;3.77;;;14.80;99.90;;;;;;2057504;28;20693;-83
2023/08/11 00:18:53;;;;;;;4.07;3.67;;;14.80;99.90;;;;;;2062108;28;20328;-83
2023/08/11 00:19:54;;;;;;;4.67;3.67;;;14.90;99.90;;;;;;2053087;28;20317;-82
2023/08/11 00:20:55;;;;;;;4.70;3.60;;;14.80;99.90;;;;;;2048836;28;20259;-83
2023/08/11 00:21:56;;;;;;;4.47;3.60;;;14.70;99.90;;;;;;2057128;28;20223;-83
2023/08/11 00:22:57;;;;;;;5.53;3.58;;;14.70;99.90;;;;;;2056221;28;20218;-83
2023/08/11 00:23:58;;;;;;;3.70;3.30;;;14.60;99.90;;;;;;2060762;28;20588;-82
2023/08/11 00:24:59;;;;;;;4.70;3.40;;;14.80;99.90;;;;;;2049133;28;20227;-83
2023/08/11 00:26:00;;;;;;;4.00;3.28;;;14.70;99.90;;;;;;2037607;29;20224;-83
2023/08/11 00:27:03;;;;;;;5.33;3.73;;;14.70;99.90;;;;;;2040375;29;20290;-85
2023/08/11 00:28:04;;;;;;;4.40;3.20;;;14.70;99.90;;;;;;2048105;28;20222;-83
2023/08/11 00:29:05;;;;;;;4.70;3.22;;;14.70;99.90;;;;;;2047841;28;20730;-83
2023/08/11 00:30:07;;;;;;;3.93;3.50;;;14.70;99.90;;;;;;2047969;28;20191;-82
2023/08/11 00:31:08;;;;;;;3.83;3.35;;;14.70;99.90;;;;;;2055356;28;20257;-83
2023/08/11 00:32:08;;;;;;;6.80;4.15;;;14.70;99.90;;;;;;2047057;28;20208;-83
2023/08/11 00:33:10;;;;;;;4.37;3.57;;;14.80;99.90;;;;;;2048484;28;20208;-83
2023/08/11 00:34:11;;;;;;;3.95;3.40;;;14.80;99.90;;;;;;2041061;28;20241;-83
2023/08/11 00:35:11;;;;;;;3.70;3.17;;;14.80;99.90;;;;;;2048992;28;20554;-83
2023/08/11 00:36:14;;;;;;;3.60;3.13;;;14.80;99.90;;;;;;2047271;28;20186;-83
2023/08/11 00:37:15;;;;;;;4.30;3.67;;;14.70;99.90;;;;;;2048897;28;20184;-83
2023/08/11 00:38:16;;;;;;;3.73;3.23;;;14.70;99.90;;;;;;2056867;28;20183;-83
2023/08/11 00:39:17;;;;;;;3.53;3.23;;;14.50;99.90;;;;;;2053099;28;20211;-83
2023/08/11 00:40:18;;;;;;;3.53;3.23;;;14.60;99.90;;;;;;2064480;28;20670;-83
2023/08/11 00:41:18;;;;;;;4.20;3.28;;;14.60;99.90;;;;;;2064743;28;20182;-83
2023/08/11 00:42:19;;;;;;;4.07;3.13;;;14.70;99.90;;;;;;2056930;28;20183;-83
2023/08/11 00:43:20;;;;;;;4.53;3.20;;;14.70;99.90;;;;;;2048169;28;20235;-83
2023/08/11 00:44:21;;;;;;;4.28;3.38;;;14.60;99.90;;;;;;2053068;28;20243;-83
2023/08/11 00:45:22;;;;;;;4.22;3.25;;;14.60;99.90;;;;;;2045872;28;20228;-84
2023/08/11 00:46:24;;;;;;;4.00;3.03;;;14.60;99.90;;;;;;2045370;28;20251;-83
2023/08/11 00:47:25;;;;;;;4.22;3.70;;;14.60;99.90;;;;;;2054093;28;20227;-83
2023/08/11 00:48:26;;;;;;;4.63;3.35;;;14.70;99.90;;;;;;2051421;28;20311;-81
2023/08/11 00:49:28;;;;;;;5.07;3.37;;;14.60;99.90;;;;;;2055298;28;20235;-82
2023/08/11 00:50:29;;;;;;;3.30;2.92;;;14.60;99.90;;;;;;2053973;28;20290;-82
2023/08/11 00:51:30;;;;;;;4.70;3.53;;;14.80;99.90;;;;;;2057926;28;20234;-83
2023/08/11 00:52:31;;;;;;;3.30;3.00;;;14.70;99.90;;;;;;2052639;28;20236;-83
2023/08/11 00:53:35;;;;;;;4.43;3.43;;;14.70;99.90;;;;;;2054462;28;20850;-83
2023/08/11 00:54:36;;;;;;;3.92;3.15;;;14.50;99.90;;;;;;2056790;28;20226;-83
2023/08/11 00:55:38;;;;;;;4.22;3.42;;;14.50;99.90;;;;;;2049196;28;20228;-83
2023/08/11 00:56:44;;;;;;;3.88;3.40;;;14.50;99.90;;;;;;2055742;28;20227;-83
2023/08/11 00:57:46;;;;;;;3.80;2.90;;;14.60;99.90;;;;;;2057942;28;20262;-83
2023/08/11 00:58:49;;;;;;;3.55;3.25;;;14.50;99.90;;;;;;2057563;28;20222;-83
2023/08/11 00:59:50;;;;;;;4.63;3.40;;;14.60;99.90;;;;;;2048080;28;20218;-83
2023/08/11 01:00:52;;;;;;;6.57;3.20;;;14.60;99.90;;;;;;2050588;28;20222;-83
2023/08/11 01:01:53;;;;;;;3.53;3.20;;;14.60;99.90;;;;;;2054516;28;20332;-83
2023/08/11 01:02:54;;;;;;;3.73;3.33;;;14.70;99.90;;;;;;2057347;28;20223;-83
2023/08/11 01:03:54;;;;;;;3.50;3.03;;;14.70;99.90;;;;;;2055985;28;20283;-83
2023/08/11 01:04:55;;;;;;;3.70;3.30;;;14.80;99.90;;;;;;2053501;28;20249;-83
2023/08/11 01:06:11;;;;;;;2.70;2.50;;;14.80;99.90;;;;;;2057047;28;20219;-83
2023/08/11 01:07:33;;;;;;;2.85;2.63;;;14.80;99.90;;;;;;2055058;28;20254;-83
2023/08/11 01:09:03;;;;;;;3.47;3.08;;;14.80;99.90;;;;;;2054053;28;20226;-83
2023/08/11 01:10:24;;;;;;;3.85;3.00;;;14.80;99.90;;;;;;2055080;28;20222;-83
2023/08/11 01:11:30;;;;;;;4.07;3.28;;;14.80;99.90;;;;;;2061522;28;20229;-83
2023/08/11 01:13:13;;;;;;;3.70;3.35;;;14.70;99.90;;;;;;2053381;28;20231;-83
2023/08/11 01:14:22;;;;;;;4.00;3.47;;;14.60;99.90;;;;;;2057742;28;20221;-83
2023/08/11 01:15:30;;;;;;;3.25;2.83;;;14.70;99.90;;;;;;2046621;28;20228;-83
2023/08/11 01:16:32;;;;;;;3.72;3.25;;;14.60;99.90;;;;;;2041309;28;20651;-82
2023/08/11 01:17:34;;;;;;;3.63;3.10;;;14.50;99.90;;;;;;2054099;28;20212;-82
2023/08/11 01:18:35;;;;;;;3.60;2.95;;;14.60;99.90;;;;;;2060849;28;20262;-82
2023/08/11 01:19:37;;;;;;;3.33;3.00;;;14.50;99.90;;;;;;2061935;28;20242;-83
2023/08/11 01:20:39;;;;;;;4.15;3.15;;;14.50;99.90;;;;;;2057748;28;20237;-83
2023/08/11 01:21:40;;;;;;;3.85;3.45;;;14.50;99.90;;;;;;2059538;28;20313;-83
2023/08/11 01:22:46;;;;;;;4.10;3.17;;;14.40;99.90;;;;;;2058234;28;20233;-84
2023/08/11 01:23:47;;;;;;;3.92;3.22;;;14.50;99.90;;;;;;2057794;28;20226;-84
2023/08/11 01:24:49;;;;;;;4.33;3.20;;;14.40;99.90;;;;;;2053925;28;20306;-84
2023/08/11 01:25:50;;;;;;;4.07;3.20;;;14.40;99.90;;;;;;2057719;28;20270;-83
2023/08/11 01:26:50;;;;;;;4.53;3.55;;;14.40;99.90;;;;;;2056779;28;20227;-84
2023/08/11 01:27:57;;;;;;;4.00;3.20;;;14.50;99.90;;;;;;2058237;28;20278;-84
2023/08/11 01:28:58;;;;;;;3.38;2.85;;;14.40;99.90;;;;;;2058022;28;20278;-84
2023/08/11 01:29:59;;;;;;;4.63;3.03;;;14.40;99.90;;;;;;2057459;28;20219;-84
2023/08/11 01:31:00;;;;;;;3.53;2.97;;;14.40;99.90;;;;;;2062405;28;20276;-84
2023/08/11 01:32:00;;;;;;;4.00;3.53;;;14.40;99.90;;;;;;2047486;28;20227;-85
2023/08/11 01:33:03;;;;;;;5.03;3.10;;;14.30;99.90;;;;;;2055453;28;20223;-84
2023/08/11 01:34:04;;;;;;;3.45;2.80;;;14.30;99.90;;;;;;2065264;28;20182;-85
2023/08/11 01:35:06;;;;;;;4.23;2.90;;;14.30;99.90;;;;;;2062608;28;20206;-84
2023/08/11 01:36:08;;;;;;;6.90;3.55;;;14.30;99.90;;;;;;2046059;28;20187;-84
2023/08/11 01:37:09;;;;;;;3.95;3.17;;;14.30;99.90;;;;;;2041579;28;20599;-84
2023/08/11 01:38:10;;;;;;;3.67;3.13;;;14.20;99.90;;;;;;2048755;28;20192;-84
2023/08/11 01:39:10;;;;;;;3.57;3.27;;;14.20;99.90;;;;;;2048291;28;20192;-85
2023/08/11 01:40:11;;;;;;;3.37;2.90;;;14.30;99.90;;;;;;2048234;28;20191;-84
2023/08/11 01:41:13;;;;;;;3.50;3.00;;;14.20;99.90;;;;;;2056670;28;20225;-84
2023/08/11 01:42:15;;;;;;;3.60;2.95;;;14.20;99.90;;;;;;2052711;28;20679;-84
2023/08/11 01:43:17;;;;;;;3.78;3.38;;;14.20;99.90;;;;;;2049473;28;20199;-83
2023/08/11 01:44:18;;;;;;;6.38;3.67;;;14.10;99.90;;;;;;2055957;28;20654;-84
2023/08/11 01:45:19;;;;;;;3.80;3.38;;;14.10;99.90;;;;;;2056202;28;20195;-84
2023/08/11 01:46:22;;;;;;;3.77;3.47;;;14.10;99.90;;;;;;2061285;28;20244;-84
2023/08/11 01:47:24;;;;;;;5.18;3.60;;;14.10;99.90;;;;;;2056253;28;20242;-85
2023/08/11 01:48:26;;;;;;;5.53;3.63;;;14.10;99.90;;;;;;2049201;28;20310;-84
2023/08/11 01:49:28;;;;;;;3.45;3.15;;;14.20;99.90;;;;;;2040275;28;20246;-84
2023/08/11 01:50:29;;;;;;;4.22;3.47;;;14.00;99.90;;;;;;2047889;28;20231;-84
2023/08/11 01:51:30;;;;;;;4.15;3.33;;;14.10;99.90;;;;;;2053710;28;20223;-84
2023/08/11 01:52:37;;;;;;;5.37;3.40;;;14.10;99.90;;;;;;2052910;28;20700;-84
2023/08/11 01:53:38;;;;;;;3.60;3.30;;;14.10;99.90;;;;;;2048392;28;20615;-84
2023/08/11 01:54:42;;;;;;;4.27;3.47;;;14.10;99.90;;;;;;2055764;28;20251;-84
2023/08/11 01:55:44;;;;;;;5.60;4.03;;;14.10;99.90;;;;;;2053097;28;20231;-84
2023/08/11 01:56:45;;;;;;;5.10;4.00;;;14.00;99.90;;;;;;2054264;28;20231;-84
2023/08/11 01:57:46;;;;;;;3.95;3.55;;;14.10;99.90;;;;;;2045606;28;20284;-84
2023/08/11 01:58:47;;;;;;;5.07;3.50;;;14.10;99.90;;;;;;2044973;28;21050;-84
2023/08/11 01:59:48;;;;;;;3.40;3.10;;;14.00;99.90;;;;;;2056624;28;20234;-84
2023/08/11 02:00:49;;;;;;;4.67;3.63;;;14.10;99.90;;;;;;2064730;28;20214;-84
2023/08/11 02:01:49;;;;;;;3.43;3.13;;;14.00;99.90;;;;;;2048096;28;20219;-84
2023/08/11 02:02:50;;;;;;;3.90;3.60;;;14.10;99.90;;;;;;2056094;28;20241;-84
2023/08/11 02:03:51;;;;;;;4.10;3.53;;;14.10;99.90;;;;;;2055210;28;20234;-84
2023/08/11 02:04:51;;;;;;;4.80;3.77;;;14.10;99.90;;;;;;2055688;28;20222;-84
2023/08/11 02:05:55;;;;;;;4.23;3.40;;;14.10;99.90;;;;;;2048726;29;20700;-84
2023/08/11 02:06:56;;;;;;;3.78;3.03;;;14.10;99.90;;;;;;2048155;28;20223;-84
2023/08/11 02:07:56;;;;;;;3.90;3.30;;;14.00;99.90;;;;;;2041056;29;20220;-85
2023/08/11 02:08:57;;;;;;;3.97;3.40;;;14.00;99.90;;;;;;2040778;28;20220;-84
2023/08/11 02:09:58;;;;;;;4.65;3.70;;;14.00;99.90;;;;;;2064305;28;20217;-85
2023/08/11 02:10:59;;;;;;;3.40;3.10;;;14.00;99.90;;;;;;2048146;28;20215;-84
2023/08/11 02:12:00;;;;;;;3.57;3.27;;;14.00;99.90;;;;;;2052493;28;20309;-83
2023/08/11 02:13:01;;;;;;;4.05;3.33;;;14.00;99.90;;;;;;2046342;28;20219;-84
2023/08/11 02:14:02;;;;;;;6.37;3.40;;;13.90;99.90;;;;;;2046683;28;20183;-84
2023/08/11 02:15:05;;;;;;;5.43;3.43;;;14.00;99.90;;;;;;2056000;28;21212;-84
2023/08/11 02:16:06;;;;;;;4.70;3.50;;;13.90;99.90;;;;;;2050421;28;20618;-84
2023/08/11 02:17:07;;;;;;;5.05;3.42;;;13.80;99.90;;;;;;2050384;28;20180;-84
2023/08/11 02:18:08;;;;;;;4.43;3.87;;;13.90;99.90;;;;;;2050062;28;20230;-84
2023/08/11 02:19:09;;;;;;;3.58;3.28;;;13.90;99.90;;;;;;2057895;28;20171;-84
2023/08/11 02:20:21;;;;;;;4.00;3.23;;;13.90;99.90;;;;;;2054586;28;20266;-83
2023/08/11 02:21:21;;;;;;;4.15;3.50;;;13.90;99.90;;;;;;2051398;28;20242;-84
2023/08/11 02:22:23;;;;;;;6.47;3.80;;;14.00;99.90;;;;;;2058408;28;20265;-84
2023/08/11 02:23:24;;;;;;;3.65;3.00;;;13.90;99.90;;;;;;2053268;28;20282;-84
2023/08/11 02:24:24;;;;;;;4.30;3.77;;;14.00;99.90;;;;;;2057605;28;20277;-84
2023/08/11 02:25:25;;;;;;;4.73;3.70;;;13.90;99.90;;;;;;2049888;28;20744;-85
2023/08/11 02:26:26;;;;;;;3.85;3.45;;;13.90;99.90;;;;;;2057589;28;20747;-84
2023/08/11 02:27:27;;;;;;;4.33;3.50;;;13.90;99.90;;;;;;2045376;28;20228;-82
2023/08/11 02:28:27;;;;;;;3.57;3.20;;;13.90;99.90;;;;;;2049739;28;20309;-84
2023/08/11 02:29:29;;;;;;;4.17;3.40;;;14.00;99.90;;;;;;2057364;28;20309;-84
2023/08/11 02:30:30;;;;;;;4.25;3.10;;;13.90;99.90;;;;;;2041341;28;20745;-84
2023/08/11 02:31:32;;;;;;;3.43;3.13;;;13.80;99.90;;;;;;2038544;29;20259;-84
2023/08/11 02:32:33;;;;;;;6.15;3.28;;;13.80;99.90;;;;;;2051893;28;20574;-83
2023/08/11 02:33:34;;;;;;;5.70;3.33;;;13.80;99.90;;;;;;2050366;28;20238;-84
2023/08/11 02:34:36;;;;;;;5.55;3.35;;;13.70;99.90;;;;;;2039154;28;21087;-84
2023/08/11 02:35:36;;;;;;;4.85;3.60;;;13.70;99.90;;;;;;2047616;28;20291;-84
2023/08/11 02:36:37;;;;;;;4.13;3.23;;;13.60;99.90;;;;;;2057287;28;20234;-85
2023/08/11 02:37:39;;;;;;;4.47;3.47;;;13.50;99.90;;;;;;2056961;28;20581;-84
2023/08/11 02:38:40;;;;;;;4.57;3.22;;;13.50;99.90;;;;;;2057247;28;20230;-84
2023/08/11 02:39:40;;;;;;;4.30;3.43;;;13.40;99.90;;;;;;2042202;28;20242;-84
2023/08/11 02:40:41;;;;;;;4.10;3.13;;;13.50;99.90;;;;;;2045953;28;20236;-84
2023/08/11 02:41:42;;;;;;;4.40;3.70;;;13.50;99.90;;;;;;2049708;28;20231;-84
2023/08/11 02:42:56;;;;;;;4.80;3.50;;;13.60;99.90;;;;;;2053149;28;20237;-85
2023/08/11 02:43:57;;;;;;;3.92;3.30;;;13.60;99.90;;;;;;2058036;28;20251;-84
2023/08/11 02:44:58;;;;;;;4.20;3.25;;;13.60;99.90;;;;;;2057496;28;20250;-83
2023/08/11 02:45:59;;;;;;;4.15;3.20;;;13.60;99.90;;;;;;2057484;28;20218;-84
2023/08/11 02:47:00;;;;;;;4.00;3.60;;;13.60;99.90;;;;;;2059786;28;20225;-84
2023/08/11 02:48:01;;;;;;;4.33;3.07;;;13.60;99.90;;;;;;2056066;28;20215;-84
2023/08/11 02:49:02;;;;;;;5.18;3.58;;;13.60;99.90;;;;;;2043905;28;20218;-84
2023/08/11 02:50:06;;;;;;;4.87;3.63;;;13.60;99.90;;;;;;2052285;28;20247;-84
2023/08/11 02:51:07;;;;;;;4.00;3.60;;;13.60;99.90;;;;;;2056342;28;20648;-84
2023/08/11 02:52:08;;;;;;;4.90;3.37;;;13.70;99.90;;;;;;2056988;28;20222;-84
2023/08/11 02:53:09;;;;;;;4.43;3.50;;;13.70;99.90;;;;;;2055595;28;20788;-83
2023/08/11 02:54:11;;;;;;;4.72;4.03;;;13.70;99.90;;;;;;2056786;28;20250;-84
2023/08/11 02:55:11;;;;;;;4.38;3.75;;;13.60;99.90;;;;;;2057161;28;20214;-84
2023/08/11 02:56:15;;;;;;;4.73;3.57;;;13.60;99.90;;;;;;2061327;28;20676;-83
2023/08/11 02:57:16;;;;;;;4.18;3.13;;;13.70;99.90;;;;;;2056041;28;20191;-83
2023/08/11 02:58:17;;;;;;;3.33;3.00;;;13.70;99.90;;;;;;2057802;28;20326;-84
2023/08/11 02:59:17;;;;;;;4.70;3.37;;;13.60;99.90;;;;;;2058206;28;20202;-84
2023/08/11 03:00:18;;;;;;;4.03;3.30;;;13.60;99.90;;;;;;2052897;28;20668;-84
2023/08/11 03:01:19;;;;;;;11.33;10.43;;;13.60;99.90;;;;;;2052315;28;20239;-84
2023/08/11 03:02:19;;;;;;;3.53;3.23;;;13.70;99.90;;;;;;2042662;28;20219;-84
2023/08/11 03:03:20;;;;;;;3.43;3.13;;;13.60;99.90;;;;;;2057805;28;20239;-83
2023/08/11 03:04:21;;;;;;;3.40;3.10;;;13.60;99.90;;;;;;2056019;28;20254;-83
2023/08/11 03:05:21;;;;;;;4.67;3.47;;;13.60;99.90;;;;;;2056531;28;20237;-84
2023/08/11 03:06:22;;;;;;;3.80;3.40;;;13.60;99.90;;;;;;2048566;28;20340;-83
2023/08/11 03:07:23;;;;;;;4.70;3.63;;;13.60;99.90;;;;;;2048304;28;20230;-84
2023/08/11 03:08:24;;;;;;;3.90;3.20;;;13.60;99.90;;;;;;2049229;28;20234;-85
2023/08/11 03:09:25;;;;;;;3.83;3.42;;;13.60;99.90;;;;;;2048487;28;20231;-84
2023/08/11 03:10:26;;;;;;;6.23;3.80;;;13.60;99.90;;;;;;2044849;28;20732;-84
2023/08/11 03:11:29;;;;;;;4.27;3.03;;;13.60;99.90;;;;;;2052207;28;20239;-84
2023/08/11 03:12:29;;;;;;;4.15;3.42;;;13.60;99.90;;;;;;2056549;28;20253;-84
2023/08/11 03:13:30;;;;;;;4.17;3.53;;;13.60;99.90;;;;;;2049157;28;20239;-84
2023/08/11 03:14:31;;;;;;;4.80;3.87;;;13.70;99.90;;;;;;2061270;28;20230;-83
2023/08/11 03:15:33;;;;;;;4.13;3.47;;;13.60;99.90;;;;;;2062532;28;20507;-83
2023/08/11 03:16:34;;;;;;;3.78;3.38;;;13.70;99.90;;;;;;2068927;28;20252;-84
2023/08/11 03:17:35;;;;;;;3.87;3.40;;;13.70;99.90;;;;;;2064189;28;20253;-84
2023/08/11 03:18:36;;;;;;;4.27;3.53;;;13.60;99.90;;;;;;2064837;28;20235;-84
2023/08/11 03:19:36;;;;;;;4.07;3.30;;;13.60;99.90;;;;;;2056727;28;20961;-84
2023/08/11 03:20:37;;;;;;;4.47;3.47;;;13.70;99.90;;;;;;2057646;28;20305;-84
2023/08/11 03:21:39;;;;;;;5.00;3.67;;;13.50;99.90;;;;;;2057359;28;20227;-85
2023/08/11 03:22:44;;;;;;;4.03;3.53;;;13.50;99.90;;;;;;2050260;28;20232;-85
2023/08/11 03:23:45;;;;;;;3.40;3.10;;;13.50;99.90;;;;;;2055877;28;20238;-83
2023/08/11 03:24:45;;;;;;;3.67;3.37;;;13.50;99.90;;;;;;2057034;28;20246;-84
2023/08/11 03:25:46;;;;;;;9.17;3.90;;;13.60;99.90;;;;;;2058304;28;20229;-84
2023/08/11 03:26:47;;;;;;;4.23;3.33;;;13.50;99.90;;;;;;2039978;28;20323;-83
2023/08/11 03:27:48;;;;;;;4.20;3.53;;;13.50;99.90;;;;;;2048200;28;20278;-84
2023/08/11 03:28:49;;;;;;;4.63;3.80;;;13.40;99.90;;;;;;2054330;28;20307;-84
2023/08/11 03:29:49;;;;;;;4.73;4.00;;;13.50;99.90;;;;;;2053472;28;20640;-84
2023/08/11 03:30:50;;;;;;;5.03;3.60;;;13.50;99.90;;;;;;2058173;28;20234;-85
2023/08/11 03:31:50;;;;;;;4.03;3.63;;;13.60;99.90;;;;;;2057118;28;20737;-82
2023/08/11 03:32:51;;;;;;;4.83;3.67;;;13.50;99.90;;;;;;2050481;28;20237;-83
2023/08/11 03:33:52;;;;;;;6.50;3.80;;;13.40;99.90;;;;;;2041690;29;20381;-84
2023/08/11 03:34:53;;;;;;;4.57;3.87;;;13.60;99.90;;;;;;2049566;29;20288;-85
2023/08/11 03:35:54;;;;;;;4.70;3.20;;;13.50;99.90;;;;;;2049613;28;20220;-84
2023/08/11 03:36:54;;;;;;;4.97;3.93;;;13.40;99.90;;;;;;2048943;28;20305;-84
2023/08/11 03:37:55;;;;;;;4.03;3.60;;;13.40;99.90;;;;;;2039163;29;20220;-84
2023/08/11 03:38:56;;;;;;;4.50;3.40;;;13.40;99.90;;;;;;2053459;28;20674;-82
2023/08/11 03:39:56;;;;;;;3.97;3.37;;;13.40;99.90;;;;;;2054013;28;20226;-84
2023/08/11 03:40:57;;;;;;;3.50;3.20;;;13.50;99.90;;;;;;2054532;28;20245;-84
2023/08/11 03:41:58;;;;;;;4.60;3.80;;;13.50;99.90;;;;;;2045505;29;20227;-84
2023/08/11 03:42:58;;;;;;;5.33;3.60;;;13.50;99.90;;;;;;2058787;28;20842;-85
2023/08/11 03:43:59;;;;;;;4.30;3.83;;;13.60;99.90;;;;;;2048210;28;20255;-84
2023/08/11 03:45:00;;;;;;;6.55;3.72;;;13.50;99.90;;;;;;2040554;29;20228;-85
2023/08/11 03:46:01;;;;;;;3.83;3.37;;;13.50;99.90;;;;;;2039031;29;20315;-84
2023/08/11 03:47:02;;;;;;;4.43;3.77;;;13.50;99.90;;;;;;2044211;28;20223;-84
2023/08/11 03:48:03;;;;;;;4.30;3.60;;;13.50;99.90;;;;;;2050964;28;20179;-84
2023/08/11 03:49:06;;;;;;;3.90;3.47;;;13.40;99.90;;;;;;2054628;28;20175;-84
2023/08/11 03:50:08;;;;;;;4.47;3.35;;;13.50;99.90;;;;;;2058214;28;20179;-84
2023/08/11 03:51:09;;;;;;;4.07;3.67;;;13.50;99.90;;;;;;2049977;28;20176;-84
2023/08/11 03:52:10;;;;;;;5.40;4.17;;;13.50;99.90;;;;;;2040882;28;20218;-85
2023/08/11 03:53:12;;;;;;;4.90;3.83;;;13.50;99.90;;;;;;2049568;28;20430;-84
2023/08/11 03:54:12;;;;;;;4.95;3.78;;;13.50;99.90;;;;;;2056695;28;20195;-84
2023/08/11 03:55:13;;;;;;;5.20;4.00;;;13.50;99.90;;;;;;2057642;28;20215;-84
2023/08/11 03:56:14;;;;;;;5.07;4.13;;;13.50;99.90;;;;;;2055446;28;20184;-83
2023/08/11 03:57:14;;;;;;;4.20;3.53;;;13.50;99.90;;;;;;2060924;28;20190;-84
2023/08/11 03:58:15;;;;;;;4.33;3.70;;;13.50;99.90;;;;;;2061991;28;20214;-83
2023/08/11 03:59:16;;;;;;;4.97;3.53;;;13.60;99.90;;;;;;2054018;28;20204;-83
2023/08/11 04:00:19;;;;;;;4.80;4.10;;;13.40;99.90;;;;;;2046287;28;20199;-84
2023/08/11 04:01:20;;;;;;;5.38;4.38;;;13.40;99.90;;;;;;2056039;28;20194;-84
2023/08/11 04:02:20;;;;;;;4.07;3.67;;;13.20;99.90;;;;;;2052394;28;20246;-84
2023/08/11 04:03:22;;;;;;;6.13;4.23;;;13.30;99.90;;;;;;2059167;28;20246;-84
2023/08/11 04:04:22;;;;;;;6.65;3.78;;;13.30;99.90;;;;;;2054566;28;20314;-84
2023/08/11 04:05:24;;;;;;;3.73;3.40;;;13.30;99.90;;;;;;2056736;28;20304;-83
2023/08/11 04:06:31;;;;;;;4.55;3.80;;;13.20;99.90;;;;;;2050336;28;20315;-83
2023/08/11 04:07:32;;;;;;;4.78;3.75;;;13.30;99.90;;;;;;2048320;28;20255;-83
2023/08/11 04:08:33;;;;;;;5.50;3.60;;;13.40;99.90;;;;;;2050724;28;20333;-83
2023/08/11 04:09:34;;;;;;;4.27;3.60;;;13.40;99.90;;;;;;2057763;28;20612;-83
2023/08/11 04:10:35;;;;;;;4.73;4.00;;;13.40;99.90;;;;;;2047335;28;20294;-84
2023/08/11 04:11:36;;;;;;;6.32;4.15;;;13.30;99.90;;;;;;2041659;28;20338;-82
2023/08/11 04:12:37;;;;;;;4.17;3.77;;;13.30;99.90;;;;;;2041155;29;20227;-83
2023/08/11 04:13:38;;;;;;;4.57;3.90;;;13.30;99.90;;;;;;2049469;28;20231;-83
2023/08/11 04:14:38;;;;;;;5.37;4.27;;;13.40;99.90;;;;;;2049607;28;20239;-84
2023/08/11 04:15:39;;;;;;;4.07;3.63;;;13.40;99.90;;;;;;2049560;28;20243;-83
2023/08/11 04:16:40;;;;;;;5.03;3.90;;;13.40;99.90;;;;;;2049551;28;21030;-83
2023/08/11 04:17:40;;;;;;;5.07;3.63;;;13.50;99.90;;;;;;2041269;29;20274;-84
2023/08/11 04:18:41;;;;;;;4.17;3.73;;;13.60;99.90;;;;;;2049353;29;20263;-83
2023/08/11 04:19:43;;;;;;;5.67;3.57;;;13.50;99.90;;;;;;2052015;28;20259;-83
2023/08/11 04:20:44;;;;;;;6.43;4.10;;;13.50;99.90;;;;;;2054660;28;20305;-83
2023/08/11 04:21:45;;;;;;;4.22;3.72;;;13.60;99.90;;;;;;2065933;28;20234;-84
2023/08/11 04:22:46;;;;;;;4.57;3.80;;;13.60;99.90;;;;;;2062038;28;20243;-83
2023/08/11 04:23:46;;;;;;;4.47;3.87;;;13.60;99.90;;;;;;2045731;28;20242;-82
2023/08/11 04:24:47;;;;;;;4.17;3.77;;;13.60;99.90;;;;;;2042611;29;20303;-83
2023/08/11 04:25:48;;;;;;;4.00;3.60;;;13.60;99.90;;;;;;2041071;29;20717;-83
2023/08/11 04:26:49;;;;;;;5.47;3.57;;;13.60;99.90;;;;;;2055358;28;20372;-84
2023/08/11 04:27:49;;;;;;;4.90;4.00;;;13.50;99.90;;;;;;2042087;29;20234;-84
2023/08/11 04:28:50;;;;;;;4.30;3.90;;;13.60;99.90;;;;;;2046964;28;20224;-83
2023/08/11 04:29:51;;;;;;;4.13;3.73;;;13.70;99.90;;;;;;2056059;28;20749;-83
2023/08/11 04:30:51;;;;;;;3.70;3.23;;;13.60;99.90;;;;;;2056438;28;20215;-83
2023/08/11 04:31:52;;;;;;;5.07;3.83;;;13.60;99.90;;;;;;2057113;28;20214;-83
2023/08/11 04:32:53;;;;;;;4.43;3.70;;;13.60;99.90;;;;;;2057931;28;20318;-83
2023/08/11 04:33:54;;;;;;;4.63;3.47;;;13.60;99.90;;;;;;2055622;28;20242;-84
2023/08/11 04:34:54;;;;;;;4.67;3.70;;;13.70;99.90;;;;;;2046212;28;20259;-82
2023/08/11 04:35:55;;;;;;;4.10;3.63;;;13.70;99.90;;;;;;2041901;29;20673;-84
2023/08/11 04:36:56;;;;;;;4.20;3.80;;;13.60;99.90;;;;;;2049282;28;20255;-83
2023/08/11 04:37:56;;;;;;;5.47;3.77;;;13.70;99.90;;;;;;2055821;28;20251;-84
2023/08/11 04:38:57;;;;;;;4.00;3.60;;;13.70;99.90;;;;;;2048270;28;20230;-83
2023/08/11 04:39:58;;;;;;;4.93;4.00;;;13.70;99.90;;;;;;2050065;28;20597;-83
2023/08/11 04:40:59;;;;;;;4.80;3.80;;;13.70;99.90;;;;;;2057370;28;20282;-84
2023/08/11 04:42:00;;;;;;;3.97;3.57;;;13.80;99.90;;;;;;2052579;28;20227;-84
2023/08/11 04:43:00;;;;;;;5.27;4.30;;;13.70;99.90;;;;;;2054244;28;20502;-83
2023/08/11 04:44:01;;;;;;;4.63;3.90;;;13.80;99.90;;;;;;2055837;28;20271;-84
2023/08/11 04:45:02;;;;;;;4.07;3.67;;;13.70;99.90;;;;;;2041853;28;20252;-84
2023/08/11 04:46:03;;;;;;;5.67;3.90;;;13.80;99.90;;;;;;2047961;28;20276;-83
2023/08/11 04:47:04;;;;;;;4.10;3.53;;;13.80;99.90;;;;;;2051916;28;20176;-84
2023/08/11 04:48:05;;;;;;;4.37;3.37;;;13.80;99.90;;;;;;2067294;28;20341;-85
2023/08/11 04:49:06;;;;;;;4.13;3.43;;;13.70;99.90;;;;;;2066165;28;20182;-84
2023/08/11 04:50:08;;;;;;;3.87;3.43;;;13.70;99.90;;;;;;2050970;28;20199;-84
2023/08/11 04:51:08;;;;;;;4.10;3.67;;;13.70;99.90;;;;;;2041244;28;20268;-84
2023/08/11 04:52:09;;;;;;;4.37;3.63;;;13.70;99.90;;;;;;2049253;28;20180;-84
2023/08/11 04:53:10;;;;;;;5.03;3.93;;;13.70;99.90;;;;;;2050422;28;20176;-84
2023/08/11 04:54:11;;;;;;;4.53;4.07;;;13.70;99.90;;;;;;2057697;28;20187;-85
2023/08/11 04:55:12;;;;;;;4.50;3.97;;;13.90;99.90;;;;;;2056937;28;20771;-84
2023/08/11 04:56:13;;;;;;;5.88;4.53;;;13.90;99.90;;;;;;2056187;28;20219;-84
2023/08/11 04:57:14;;;;;;;4.67;4.07;;;14.00;99.90;;;;;;2055836;28;20186;-83
2023/08/11 04:58:14;;;;;;;4.87;4.30;;;14.00;99.90;;;;;;2048332;28;20196;-85
2023/08/11 04:59:15;;;;;;;6.63;4.33;;;14.00;99.90;;;;;;2048265;28;20192;-84
2023/08/11 05:00:17;;;;;;;4.53;4.00;;;14.10;99.90;;;;;;2040582;28;20255;-84
2023/08/11 05:01:17;;;;;;;5.63;4.07;;;14.00;99.90;;;;;;2056524;28;20190;-83
2023/08/11 05:02:18;;;;;;;6.57;4.37;;;14.00;99.90;;;;;;2061345;28;20754;-84
2023/08/11 05:03:19;;;;;;;6.23;4.00;;;14.10;99.90;;;;;;2044999;29;20187;-84
2023/08/11 05:04:19;;;;;;;4.00;3.53;;;14.10;99.90;;;;;;2043703;28;20219;-84
2023/08/11 05:05:21;;;;;;;3.70;3.40;;;14.10;99.90;;;;;;2047310;28;21539;-84
2023/08/11 05:06:22;;;;;;;4.68;3.78;;;14.10;99.90;;;;;;2047644;28;20238;-84
2023/08/11 05:07:22;;;;;;;4.53;3.57;;;14.10;99.90;;;;;;2048511;28;20231;-84
2023/08/11 05:08:23;;;;;;;5.13;3.70;;;14.10;99.90;;;;;;2049104;28;20227;-84
2023/08/11 05:09:24;;;;;;;4.47;4.00;;;14.20;99.90;;;;;;2049517;28;20235;-85
2023/08/11 05:10:24;;;;;;;5.07;3.57;;;14.00;99.90;;;;;;2048922;28;20704;-84
2023/08/11 05:11:26;;;;;;;4.00;3.60;;;14.00;99.90;;;;;;2060932;28;20266;-83
2023/08/11 05:12:27;;;;;;;4.50;3.85;;;14.00;99.90;;;;;;2065964;28;20239;-84
2023/08/11 05:13:28;;;;;;;5.10;3.80;;;14.00;99.90;;;;;;2057898;28;20226;-84
2023/08/11 05:14:28;;;;;;;4.77;3.40;;;14.10;99.90;;;;;;2043536;28;20235;-84
2023/08/11 05:15:29;;;;;;;4.10;3.63;;;14.10;99.90;;;;;;2041283;29;20684;-83
2023/08/11 05:16:30;;;;;;;6.70;3.60;;;14.10;99.90;;;;;;2042056;28;20228;-83
2023/08/11 05:17:31;;;;;;;4.70;3.50;;;14.20;99.90;;;;;;2050487;28;20231;-83
2023/08/11 05:18:32;;;;;;;4.38;3.63;;;14.30;99.90;;;;;;2046718;28;20315;-83
2023/08/11 05:19:33;;;;;;;5.77;3.77;;;14.20;99.90;;;;;;2038757;29;20797;-83
2023/08/11 05:20:33;;;;;;;5.07;3.73;;;14.20;99.90;;;;;;2052798;28;20291;-82
2023/08/11 05:21:36;;;;;;;3.83;3.20;;;14.30;99.90;;;;;;2049570;28;20228;-82